Latest Weather Observations for Borroloola

IDD60801

Issued at 11:31 pm CST Sunday 2 August 2015 (issued every 30 minutes, with the page automatically refreshed every 10 minutes)

About weather observations | Map of weather stations | Latest weather observations for NT | Other Formats
Station Details ID: 014723 Name: BORROLOOLA AIRPORT Lat: -16.08 Lon: 136.30 Height: 16.1 m
Data from the previous 72 hours. | See also: Recent months at Borroloola
Date/Time
CST
Temp
°C
App
Temp
°C
Dew
Point
Rel
Hum
%
Delta-T
°C
Wind Press
QNH
hPa
Press
MSL
hPa
Rain
since 9 am
mm
Dir
 
Spd
km/h
Gust
km/h
Spd
kts
Gust
kts
02/11:30pm 19.9 21.6 15.3 75 2.7 CALM 0 0 0 0 1017.5 1017.4 0.0
02/11:00pm 21.1 22.6 17.7 81 2.1 ENE 6 7 3 4 1017.6 1017.5 0.0
02/10:30pm 21.5 22.9 17.3 77 2.6 ENE 6 9 3 5 1017.6 1017.5 0.0
02/10:00pm 21.9 23.5 16.8 73 3.1 NE 4 6 2 3 1017.5 1017.4 0.0
02/09:30pm 22.8 23.4 16.8 69 3.7 ENE 9 13 5 7 1017.3 1017.2 0.0
02/09:00pm 23.2 22.8 15.3 61 4.7 NE 11 15 6 8 1017.0 1016.9 0.0
02/08:30pm 23.8 23.4 14.2 55 5.6 NE 9 13 5 7 1016.7 1016.6 0.0
02/08:00pm 24.8 23.1 12.4 46 7.1 NE 13 17 7 9 1016.4 1016.3 0.0
02/07:30pm 26.0 23.4 9.4 35 9.1 NE 13 17 7 9 1015.8 1015.7 0.0
02/07:00pm 26.8 24.3 8.3 31 10.0 NE 11 15 6 8 1015.5 1015.4 0.0
02/06:30pm 27.8 24.4 7.6 28 10.8 NE 15 24 8 13 1015.2 1015.1 0.0
02/06:00pm 28.7 24.8 7.3 26 11.5 NE 17 26 9 14 1015.0 1014.9 0.0
02/05:30pm 29.7 25.5 7.6 25 12.0 NE 19 30 10 16 1014.8 1014.7 0.0
02/05:00pm 30.3 26.3 8.1 25 12.2 NE 19 26 10 14 1014.7 1014.6 0.0
02/04:30pm 31.0 27.1 8.7 25 12.4 NNE 19 26 10 14 1014.5 1014.4 0.0
02/04:00pm 31.4 27.2 8.4 24 12.8 NNE 20 30 11 16 1014.4 1014.3 0.0
02/03:30pm 31.9 27.8 8.8 24 12.9 NE 20 32 11 17 1014.4 1014.3 0.0
02/03:00pm 31.7 28.8 8.0 23 13.1 NNE 13 22 7 12 1014.5 1014.4 0.0
02/02:30pm 31.8 28.5 8.1 23 13.1 NNW 15 20 8 11 1014.9 1014.8 0.0
02/02:00pm 32.1 29.3 8.4 23 13.2 ENE 13 24 7 13 1015.4 1015.3 0.0
02/01:30pm 31.0 27.3 8.1 24 12.6 ENE 17 28 9 15 1016.0 1015.9 0.0
02/01:00pm 31.9 29.3 9.4 25 12.7 E 13 22 7 12 1016.6 1016.5 0.0
02/12:30pm 31.2 29.7 10.5 28 11.8 S 9 17 5 9 1017.1 1017.0 0.0
02/12:00pm 30.5 29.1 11.0 30 11.2 ESE 9 19 5 10 1017.5 1017.4 0.0
02/11:30am 29.2 27.6 10.3 31 10.7 NE 9 15 5 8 1017.9 1017.8 0.0
02/11:00am 27.4 27.6 14.1 44 7.9 ENE 6 9 3 5 1018.3 1018.2 0.0
02/10:30am 26.1 26.7 15.8 53 6.3 NE 7 11 4 6 1018.7 1018.6 0.0
02/10:00am 24.2 25.7 16.7 63 4.6 NE 4 9 2 5 1018.9 1018.8 0.0
02/09:30am 21.8 24.7 18.2 80 2.2 CALM 0 6 0 3 1018.9 1018.8 0.0
02/09:00am 19.5 21.9 18.0 91 0.9 SSE 2 7 1 4 1018.9 1018.8 0.2
02/08:30am 18.2 20.8 17.6 96 0.4 CALM 0 0 0 0 1018.6 1018.5 0.2
02/08:00am 17.7 20.1 17.1 96 0.4 CALM 0 0 0 0 1018.3 1018.2 0.2
02/07:30am 17.2 19.4 16.6 96 0.4 CALM 0 0 0 0 1017.9 1017.8 0.2
02/07:00am 17.2 19.4 16.6 96 0.4 CALM 0 0 0 0 1017.6 1017.5 0.2
02/06:30am 17.5 19.9 16.9 96 0.4 CALM 0 0 0 0 1017.3 1017.2 0.2
02/06:00am 17.7 20.1 17.1 96 0.4 CALM 0 0 0 0 1017.0 1016.9 0.2
02/05:30am 17.9 19.7 17.3 96 0.4 S 4 7 2 4 1016.7 1016.6 0.0
02/05:00am 17.8 20.3 17.2 96 0.4 CALM 0 0 0 0 1016.4 1016.3 0.0
02/04:30am 17.4 19.3 16.8 96 0.4 SSW 2 6 1 3 1016.4 1016.3 0.0
02/04:00am 16.9 19.0 16.3 96 0.4 CALM 0 0 0 0 1016.5 1016.4 0.0
02/03:30am 16.5 18.4 15.7 95 0.5 CALM 0 0 0 0 1016.7 1016.6 0.0
02/03:00am 15.7 17.0 14.2 91 0.8 CALM 0 0 0 0 1016.7 1016.6 0.0
02/02:30am 16.1 17.5 14.5 90 0.9 CALM 0 0 0 0 1016.6 1016.5 0.0
02/02:00am 16.5 16.2 12.7 78 2.1 ENE 6 7 3 4 1016.5 1016.4 0.0
02/01:30am 17.2 18.9 15.2 88 1.2 CALM 0 0 0 0 1016.7 1016.6 0.0
02/01:00am 17.5 19.2 15.1 86 1.4 CALM 0 0 0 0 1016.8 1016.7 0.0
02/12:30am 17.7 18.2 15.0 84 1.6 ENE 6 7 3 4 1016.7 1016.6 0.0
02/12:00am 18.5 20.1 15.0 80 2.0 CALM 0 0 0 0 1016.7 1016.6 0.0
 
Date/Time
CST
Temp
°C
App
Temp
°C
Dew
Point
Rel
Hum
%
Delta-T
°C
Wind Press
QNH
hPa
Press
MSL
hPa
Rain
since 9 am
mm
Dir
 
Spd
km/h
Gust
km/h
Spd
kts
Gust
kts
01/11:30pm 19.5 21.4 15.8 79 2.2 CALM 0 0 0 0 1016.6 1016.5 0.0
01/11:00pm 21.1 22.6 17.7 81 2.1 ENE 6 9 3 5 1016.8 1016.7 0.0
01/10:30pm 21.4 22.6 17.4 78 2.5 NE 7 9 4 5 1016.7 1016.6 0.0
01/10:00pm 21.8 22.9 17.0 74 2.9 NE 7 9 4 5 1016.8 1016.7 0.0
01/09:30pm 22.1 22.4 15.9 68 3.7 NNE 9 11 5 6 1016.7 1016.6 0.0
01/09:00pm 22.7 22.9 15.8 65 4.2 NNE 9 13 5 7 1016.3 1016.2 0.0
01/08:30pm 23.5 23.7 15.8 62 4.6 NNE 9 13 5 7 1016.0 1015.9 0.0
01/08:00pm 24.2 24.0 15.7 59 5.1 NE 11 15 6 8 1015.8 1015.7 0.0
01/07:30pm 24.7 24.3 15.3 56 5.7 NNE 11 15 6 8 1015.4 1015.3 0.0
01/07:00pm 25.4 24.8 15.7 55 5.9 NNE 13 17 7 9 1015.0 1014.9 0.0
01/06:30pm 26.4 25.9 14.8 49 7.0 NNE 11 17 6 9 1014.7 1014.6 0.0
01/06:00pm 27.4 26.1 13.7 43 8.1 NE 13 19 7 10 1014.5 1014.4 0.0
01/05:30pm 28.4 26.9 13.1 39 9.0 NE 13 19 7 10 1014.4 1014.3 0.0
01/05:00pm 28.9 26.9 12.8 37 9.5 ENE 15 20 8 11 1014.3 1014.2 0.0
01/04:30pm 29.9 27.7 13.2 36 9.9 ENE 17 24 9 13 1014.2 1014.1 0.0
01/04:00pm 30.0 28.1 12.9 35 10.1 NE 15 24 8 13 1014.2 1014.1 0.0
01/03:30pm 30.5 28.6 12.9 34 10.4 ENE 15 24 8 13 1014.3 1014.2 0.0
01/03:00pm 29.7 26.6 12.2 34 10.2 NE 20 28 11 15 1014.6 1014.5 0.0
01/02:30pm 30.5 28.2 11.9 31 10.9 ENE 15 24 8 13 1014.8 1014.7 0.0
01/02:00pm 30.1 27.4 11.6 32 10.7 NE 17 24 9 13 1015.2 1015.1 0.0
01/01:30pm 29.3 26.4 10.9 32 10.5 ENE 17 26 9 14 1015.7 1015.6 0.0
01/01:00pm 29.4 26.1 11.5 33 10.3 NNE 20 30 11 16 1016.1 1016.0 0.0
01/12:30pm 29.5 26.6 11.1 32 10.6 NE 17 28 9 15 1016.7 1016.6 0.0
01/12:00pm 28.8 24.3 10.0 31 10.6 NE 24 33 13 18 1017.1 1017.0 0.0
01/11:30am 28.7 24.9 9.9 31 10.5 ENE 20 30 11 16 1017.4 1017.3 0.0
01/11:00am 27.7 23.2 10.0 33 9.9 E 24 37 13 20 1017.7 1017.6 0.0
01/10:30am 27.7 24.3 10.4 34 9.7 E 19 24 10 13 1017.8 1017.7 0.0
01/10:00am 25.7 24.5 13.9 48 7.0 ESE 13 17 7 9 1018.0 1017.9 0.0
01/09:30am 23.6 24.2 15.4 60 4.9 E 6 9 3 5 1017.9 1017.8 0.0
01/09:00am 22.4 24.2 16.4 69 3.6 ESE 2 7 1 4 1017.7 1017.7 0.0
01/08:30am 19.9 21.1 17.3 85 1.6 SW 7 11 4 6 1017.2 1017.1 0.0
01/08:00am 17.4 19.6 16.4 94 0.6 CALM 0 0 0 0 1016.9 1016.8 0.0
01/07:30am 15.4 17.0 14.8 96 0.3 CALM 0 0 0 0 1016.5 1016.4 0.0
01/07:00am 14.4 15.5 13.4 94 0.6 CALM 0 0 0 0 1016.0 1015.9 0.0
01/06:30am 14.3 15.4 13.5 95 0.4 CALM 0 0 0 0 1015.8 1015.7 0.0
01/06:00am 14.7 15.6 13.9 95 0.4 WSW 2 6 1 3 1015.6 1015.5 0.0
01/05:30am 14.3 14.2 13.3 94 0.6 WSW 6 7 3 4 1015.2 1015.1 0.0
01/05:00am 14.3 14.2 13.2 93 0.6 W 6 6 3 3 1015.0 1014.9 0.0
01/04:30am 14.7 14.7 13.6 93 0.6 W 6 6 3 3 1015.1 1015.0 0.0
01/04:00am 14.7 15.1 13.6 93 0.6 SW 4 7 2 4 1015.2 1015.1 0.0
01/03:30am 15.2 16.4 13.9 92 0.7 CALM 0 0 0 0 1015.3 1015.2 0.0
01/03:00am 15.6 16.0 13.6 88 1.1 SW 4 9 2 5 1015.4 1015.3 0.0
01/02:30am 16.2 17.6 14.4 89 1.0 CALM 0 2 0 1 1015.7 1015.6 0.0
01/02:00am 16.6 18.3 15.1 91 0.9 CALM 0 0 0 0 1015.9 1015.8 0.0
01/01:30am 17.0 18.4 14.3 84 1.5 CALM 0 0 0 0 1016.1 1016.0 0.0
01/01:00am 17.9 18.5 15.3 85 1.5 SW 6 7 3 4 1016.4 1016.3 0.0
01/12:30am 18.3 19.7 15.4 83 1.7 SE 2 9 1 5 1016.5 1016.4 0.0
01/12:00am 19.9 21.5 17.9 88 1.2 ESE 6 7 3 4 1016.6 1016.5 0.0
 
Date/Time
CST
Temp
°C
App
Temp
°C
Dew
Point
Rel
Hum
%
Delta-T
°C
Wind Press
QNH
hPa
Press
MSL
hPa
Rain
since 9 am
mm
Dir
 
Spd
km/h
Gust
km/h
Spd
kts
Gust
kts
31/11:30pm 20.1 21.7 17.9 87 1.4 E 6 7 3 4 1016.7 1016.6 0.0
31/11:00pm 20.3 21.8 17.5 84 1.7 ENE 6 7 3 4 1016.9 1016.8 0.0
31/10:30pm 21.2 24.3 18.6 85 1.6 CALM 0 0 0 0 1016.8 1016.7 0.0
31/10:00pm 21.5 24.0 18.1 81 2.1 E 2 7 1 4 1016.7 1016.6 0.0
31/09:30pm 21.9 23.4 18.1 79 2.4 ENE 7 9 4 5 1016.5 1016.4 0.0
31/09:00pm 22.4 23.8 17.3 73 3.1 ENE 6 9 3 5 1016.4 1016.3 0.0
31/08:30pm 23.1 23.7 17.8 72 3.3 ENE 11 13 6 7 1016.1 1016.0 0.0
31/08:00pm 23.6 24.3 17.1 67 4.0 NE 9 13 5 7 1015.6 1015.5 0.0
31/07:30pm 24.1 23.0 16.4 62 4.7 ENE 17 24 9 13 1015.1 1015.0 0.0
31/07:00pm 24.7 23.3 14.5 53 6.1 NE 15 22 8 12 1014.8 1014.7 0.0
31/06:30pm 25.4 22.0 12.6 45 7.4 NE 22 32 12 17 1014.4 1014.3 0.0
31/06:00pm 26.5 23.1 11.4 39 8.6 NE 20 33 11 18 1013.9 1013.8 0.0
31/05:30pm 27.7 23.8 9.5 32 10.1 NE 20 28 11 15 1013.6 1013.5 0.0
31/05:00pm 28.8 24.1 7.9 27 11.3 NE 22 30 12 16 1013.5 1013.4 0.0
31/04:30pm 29.5 25.0 6.8 24 12.1 NE 20 28 11 15 1013.2 1013.1 0.0
31/04:00pm 29.9 25.1 7.2 24 12.3 NNE 22 28 12 15 1013.1 1013.0 0.0
31/03:30pm 31.1 26.3 7.5 23 12.9 N 22 30 12 16 1013.1 1013.0 0.0
31/03:00pm 31.3 27.2 7.7 23 12.9 NNE 19 26 10 14 1013.4 1013.3 0.0
31/02:30pm 31.1 27.1 8.2 24 12.6 NNE 19 28 10 15 1013.6 1013.5 0.0
31/02:00pm 31.5 28.2 6.5 21 13.5 ENE 13 28 7 15 1014.0 1013.9 0.0
31/01:30pm 31.4 27.5 7.1 22 13.2 E 17 30 9 16 1014.5 1014.4 0.0
31/01:00pm 31.0 27.8 6.8 22 13.1 E 13 22 7 12 1015.0 1014.9 0.0
31/12:30pm 31.1 27.3 7.5 23 12.9 ENE 17 26 9 14 1015.8 1015.7 0.0
31/12:00pm 30.5 27.0 8.8 26 12.0 ESE 17 26 9 14 1016.3 1016.2 0.0
31/11:30am 30.4 25.7 9.3 27 11.8 ESE 24 33 13 18 1016.8 1016.7 0.0
31/11:00am 29.1 25.3 9.8 30 10.8 ESE 20 33 11 18 1017.2 1017.1 0.0
31/10:30am 28.4 25.5 11.0 34 9.9 ESE 17 32 9 17 1017.6 1017.6 0.0
31/10:00am 26.7 24.7 13.8 45 7.6 ESE 17 22 9 12 1018.1 1018.1 0.0
31/09:30am 24.9 24.2 15.5 56 5.7 SSE 13 19 7 10 1018.3 1018.3 0.0
31/09:00am 22.9 23.2 16.0 65 4.2 SSE 9 13 5 7 1018.5 1018.5 0.0
31/08:30am 20.9 21.2 16.1 74 2.9 S 9 13 5 7 1018.5 1018.5 0.0
31/08:00am 18.7 20.7 15.9 84 1.7 CALM 0 7 0 4 1018.3 1018.3 0.0
31/07:30am 15.9 16.7 12.6 81 1.8 CALM 0 0 0 0 1018.0 1018.0 0.0
31/07:00am 15.1 15.9 12.4 84 1.5 CALM 0 0 0 0 1017.7 1017.7 0.0
31/06:30am 15.1 15.6 11.5 79 1.9 CALM 0 0 0 0 1017.4 1017.4 0.0
31/06:00am 15.3 15.7 11.1 76 2.2 CALM 0 0 0 0 1017.1 1017.0 0.0
31/05:30am 15.4 16.2 12.5 83 1.6 CALM 0 0 0 0 1016.9 1016.8 0.0
31/05:00am 16.1 17.0 13.0 82 1.7 CALM 0 0 0 0 1016.7 1016.6 0.0
31/04:30am 16.7 18.3 14.9 89 1.0 CALM 0 0 0 0 1016.9 1016.8 0.0
31/04:00am 16.6 18.0 14.4 87 1.3 CALM 0 0 0 0 1017.0 1016.9 0.0
31/03:30am 16.6 17.7 13.5 82 1.7 CALM 0 0 0 0 1017.1 1017.0 0.0
31/03:00am 16.9 18.2 14.0 83 1.6 CALM 0 0 0 0 1017.2 1017.1 0.0
31/02:30am 17.6 19.0 14.5 82 1.8 CALM 0 0 0 0 1017.3 1017.2 0.0
31/02:00am 17.5 16.7 13.0 75 2.5 SW 9 11 5 6 1017.5 1017.5 0.0
31/01:30am 18.1 19.0 13.0 72 2.9 CALM 0 0 0 0 1017.7 1017.7 0.0
31/01:00am 18.5 19.6 13.6 73 2.8 CALM 0 0 0 0 1018.0 1018.0 0.0
31/12:30am 18.6 19.8 13.7 73 2.8 CALM 0 0 0 0 1018.4 1018.4 0.0
31/12:00am 19.2 21.2 15.9 81 2.0 CALM 0 0 0 0 1018.5 1018.5 0.0

Other Formats:

Comma delimited format used in spreadsheet applications
http://www.bom.gov.au/fwo/IDD60801/IDD60801.94152.axf

JavaScript Object Notation format (JSON) in row-major order
http://www.bom.gov.au/fwo/IDD60801/IDD60801.94152.json